Time;durP1;ratioP1;P1;durP2;ratioP2;P2;SDS_P1;SDS_P2;PMS_P1;PMS_P2;Temp;Humidity;BMP_temperature;BMP_pressure;BME280_temperature;BME280_humidity;BME280_pressure;Samples;Min_cycle;Max_cycle;Signal;HPM_P1;HPM_P2
2020/12/09 00:00:29;;;;;;;;;;;;;;;17.99;59.56;101396.22;4996355;28;1778;-37
2020/12/09 00:02:55;;;;;;;;;;;;;;;18.00;59.89;101395.25;5008787;28;1947;-37
2020/12/09 00:05:21;;;;;;;;;;;;;;;18.00;59.59;101399.75;5001368;28;1692;-37
2020/12/09 00:07:47;;;;;;;;;;;;;;;18.00;59.08;101407.78;5003791;28;1766;-36
2020/12/09 00:10:12;;;;;;;;;;;;;;;17.99;58.88;101403.41;5012958;28;1875;-37
2020/12/09 00:12:37;;;;;;;;;;;;;;;17.99;58.45;101400.72;4998125;28;1895;-37
2020/12/09 00:15:04;;;;;;;;;;;;;;;17.96;58.98;101406.28;5002988;28;1891;-37
2020/12/09 00:17:30;;;;;;;;;;;;;;;17.97;58.99;101405.34;5007667;28;1758;-37
2020/12/09 00:19:55;;;;;;;;;;;;;;;17.93;58.41;101398.50;5010339;28;1707;-37
2020/12/09 00:22:23;;;;;;;;;;;;;;;17.96;58.85;101408.97;5016681;28;1889;-36
2020/12/09 00:24:48;;;;;;;;;;;;;;;17.94;59.21;101421.63;5000481;28;1699;-37
2020/12/09 00:27:14;;;;;;;;;;;;;;;17.97;59.27;101424.06;5004570;28;1957;-37
2020/12/09 00:29:39;;;;;;;;;;;;;;;17.94;59.14;101408.22;5008184;28;1842;-36
2020/12/09 00:32:04;;;;;;;;;;;;;;;17.93;59.46;101406.53;5002221;28;1771;-36
2020/12/09 00:34:30;;;;;;;;;;;;;;;17.93;59.15;101409.22;4999679;28;1856;-36
2020/12/09 00:36:55;;;;;;;;;;;;;;;17.92;59.08;101418.19;5011724;28;1922;-37
2020/12/09 00:39:20;;;;;;;;;;;;;;;17.94;58.27;101426.97;4998004;28;1691;-37
2020/12/09 00:41:45;;;;;;;;;;;;;;;17.88;57.76;101428.25;5008593;28;1996;-37
2020/12/09 00:44:11;;;;;;;;;;;;;;;17.85;57.90;101424.00;5001751;28;1887;-37
2020/12/09 00:46:36;;;;;;;;;;;;;;;17.84;58.52;101424.94;5013538;28;1934;-37
2020/12/09 00:49:01;;;;;;;;;;;;;;;17.81;59.02;101414.47;5010722;28;1850;-37
2020/12/09 00:51:26;;;;;;;;;;;;;;;17.82;57.89;101421.50;5005747;28;1774;-37
2020/12/09 00:53:52;;;;;;;;;;;;;;;17.84;58.04;101416.91;5003540;28;1786;-37
2020/12/09 00:56:17;;;;;;;;;;;;;;;17.82;58.45;101418.81;5012356;28;1931;-38
2020/12/09 00:58:42;;;;;;;;;;;;;;;17.83;58.62;101436.63;5000156;28;1735;-37
2020/12/09 01:01:09;;;;;;;;;;;;;;;17.80;58.98;101425.25;5009085;28;1902;-37
2020/12/09 01:03:34;;;;;;;;;;;;;;;17.80;58.45;101403.84;5006480;28;1895;-37
2020/12/09 01:06:00;;;;;;;;;;;;;;;17.79;57.54;101397.66;5002463;28;1853;-37
2020/12/09 01:08:26;;;;;;;;;;;;;;;17.81;57.97;101397.56;5012446;28;1833;-37
2020/12/09 01:10:52;;;;;;;;;;;;;;;17.81;58.04;101394.88;5000567;28;1855;-37
2020/12/09 01:13:17;;;;;;;;;;;;;;;17.77;57.54;101399.59;5011436;28;1664;-37
2020/12/09 01:15:43;;;;;;;;;;;;;;;17.77;58.06;101393.41;5004373;28;1841;-37
2020/12/09 01:18:08;;;;;;;;;;;;;;;17.77;57.93;101404.09;5005641;28;1683;-37
2020/12/09 01:20:34;;;;;;;;;;;;;;;17.75;58.80;101400.69;5012587;28;1915;-37
2020/12/09 01:22:59;;;;;;;;;;;;;;;17.72;57.86;101391.03;5001689;28;1919;-37
2020/12/09 01:25:24;;;;;;;;;;;;;;;17.73;58.22;101394.59;5006151;28;1691;-37
2020/12/09 01:27:50;;;;;;;;;;;;;;;17.75;58.25;101389.97;5008586;28;1733;-37
2020/12/09 01:30:15;;;;;;;;;;;;;;;17.71;58.40;101394.69;4999715;28;1926;-37
2020/12/09 01:32:40;;;;;;;;;;;;;;;17.74;58.36;101407.84;5007574;28;1846;-37
2020/12/09 01:35:05;;;;;;;;;;;;;;;17.66;57.63;101396.84;5009129;28;1867;-37
2020/12/09 01:37:31;;;;;;;;;;;;;;;17.68;58.50;101379.69;5005419;28;1954;-37
2020/12/09 01:39:56;;;;;;;;;;;;;;;17.66;58.27;101373.63;5002198;28;1707;-37
2020/12/09 01:42:21;;;;;;;;;;;;;;;17.69;58.28;101393.97;5012274;28;1914;-37
2020/12/09 01:44:46;;;;;;;;;;;;;;;17.69;57.81;101383.25;4999644;28;1876;-37
2020/12/09 01:47:12;;;;;;;;;;;;;;;17.69;58.42;101381.44;5009575;28;1974;-37
2020/12/09 01:49:38;;;;;;;;;;;;;;;17.72;57.49;101383.00;5006190;28;1900;-37
2020/12/09 01:52:04;;;;;;;;;;;;;;;17.70;57.55;101395.66;5000556;28;1936;-37
2020/12/09 01:54:32;;;;;;;;;;;;;;;17.69;58.07;101391.28;5011913;28;1979;-37
2020/12/09 01:57:04;;;;;;;;;;;;;;;17.68;57.48;101400.25;5000106;28;1807;-37
2020/12/09 01:59:30;;;;;;;;;;;;;;;17.67;58.44;101387.88;5004992;28;1967;-37
2020/12/09 02:01:55;;;;;;;;;;;;;;;17.67;57.02;101388.72;5007817;28;1890;-36
2020/12/09 02:04:20;;;;;;;;;;;;;;;17.62;57.50;101387.31;4998384;28;1881;-37
2020/12/09 02:06:48;;;;;;;;;;;;;;;17.64;57.38;101393.41;5011548;28;1707;-37
2020/12/09 02:09:14;;;;;;;;;;;;;;;17.64;58.29;101383.56;5002616;28;1715;-37
2020/12/09 02:11:39;;;;;;;;;;;;;;;17.65;57.43;101377.28;5004552;28;1781;-37
2020/12/09 02:14:04;;;;;;;;;;;;;;;17.63;59.40;101370.34;5007968;28;1882;-37
2020/12/09 02:16:29;;;;;;;;;;;;;;;17.69;59.69;101360.03;4999593;28;1782;-37
2020/12/09 02:18:54;;;;;;;;;;;;;;;17.77;59.37;101367.50;5001237;28;1920;-37
2020/12/09 02:21:21;;;;;;;;;;;;;;;17.68;58.96;101368.16;5008456;28;1882;-37
2020/12/09 02:23:46;;;;;;;;;;;;;;;17.68;58.49;101369.00;5012561;28;1851;-37
2020/12/09 02:26:11;;;;;;;;;;;;;;;17.65;58.28;101376.44;5014086;28;1848;-37
2020/12/09 02:28:36;;;;;;;;;;;;;;;17.65;57.96;101368.41;5014392;28;942;-37
2020/12/09 02:31:02;;;;;;;;;;;;;;;17.62;58.05;101364.09;5014209;28;841;-37
2020/12/09 02:33:27;;;;;;;;;;;;;;;17.61;58.36;101361.56;5007732;28;1730;-37
2020/12/09 02:35:52;;;;;;;;;;;;;;;17.59;57.85;101364.34;4994923;28;845;-37
2020/12/09 02:38:17;;;;;;;;;;;;;;;17.57;57.99;101360.94;4994862;28;782;-37
2020/12/09 02:40:43;;;;;;;;;;;;;;;17.60;58.45;101366.03;5005077;28;1672;-36
2020/12/09 02:43:08;;;;;;;;;;;;;;;17.55;58.55;101372.69;5000065;28;1980;-37
2020/12/09 02:45:33;;;;;;;;;;;;;;;17.56;58.69;101361.03;5009730;28;1903;-37
2020/12/09 02:47:58;;;;;;;;;;;;;;;17.56;58.47;101377.94;4995524;28;1906;-37
2020/12/09 02:50:24;;;;;;;;;;;;;;;17.56;57.87;101358.38;5003302;28;1652;-37
2020/12/09 02:52:49;;;;;;;;;;;;;;;17.56;58.74;101369.91;5001487;28;2018;-37
2020/12/09 02:55:14;;;;;;;;;;;;;;;17.54;57.35;101360.28;5010483;28;1884;-37
2020/12/09 02:57:39;;;;;;;;;;;;;;;17.55;57.84;101362.88;4995880;28;1804;-37
2020/12/09 03:00:05;;;;;;;;;;;;;;;17.58;57.87;101348.41;5001225;28;1850;-36
2020/12/09 03:02:31;;;;;;;;;;;;;;;17.59;57.50;101359.00;5003953;28;1898;-37
2020/12/09 03:04:56;;;;;;;;;;;;;;;17.57;58.16;101346.72;5007407;28;1860;-36
2020/12/09 03:07:21;;;;;;;;;;;;;;;17.59;57.49;101352.81;4997369;28;1922;-37
2020/12/09 03:09:46;;;;;;;;;;;;;;;17.55;57.07;101341.47;4994565;28;1826;-37
2020/12/09 03:12:12;;;;;;;;;;;;;;;17.55;57.06;101351.28;5001535;28;1871;-36
2020/12/09 03:14:37;;;;;;;;;;;;;;;17.54;58.11;101360.28;5003611;28;1853;-37
2020/12/09 03:17:02;;;;;;;;;;;;;;;17.53;57.96;101353.22;5007404;28;1737;-37
2020/12/09 03:19:27;;;;;;;;;;;;;;;17.55;57.14;101367.34;4998147;28;1937;-37
2020/12/09 03:21:52;;;;;;;;;;;;;;;17.54;57.79;101362.97;5009274;28;2008;-37
2020/12/09 03:24:18;;;;;;;;;;;;;;;17.48;57.84;101356.25;5002446;28;2064;-36
2020/12/09 03:26:43;;;;;;;;;;;;;;;17.52;57.79;101356.88;5002639;28;1886;-36
2020/12/09 03:29:08;;;;;;;;;;;;;;;17.46;58.01;101340.31;5009277;28;1811;-36
2020/12/09 03:31:33;;;;;;;;;;;;;;;17.49;57.05;101340.09;4995397;28;1775;-36
2020/12/09 03:33:59;;;;;;;;;;;;;;;17.45;56.88;101330.59;4999199;28;1963;-36
2020/12/09 03:36:24;;;;;;;;;;;;;;;17.45;56.95;101343.94;5005181;28;2033;-37
2020/12/09 03:38:49;;;;;;;;;;;;;;;17.44;57.84;101339.56;5006006;28;1664;-37
2020/12/09 03:41:14;;;;;;;;;;;;;;;17.45;57.52;101338.59;4997930;28;1918;-37
2020/12/09 03:43:40;;;;;;;;;;;;;;;17.45;56.62;101343.94;5013125;28;1739;-36
2020/12/09 03:46:05;;;;;;;;;;;;;;;17.43;57.39;101331.69;5004027;28;1963;-37
2020/12/09 03:48:30;;;;;;;;;;;;;;;17.44;56.48;101331.53;5007247;28;1720;-36
2020/12/09 03:50:55;;;;;;;;;;;;;;;17.38;57.28;101333.81;5010160;28;1738;-37
2020/12/09 03:53:21;;;;;;;;;;;;;;;17.23;60.03;101341.97;5000443;28;1808;-37
2020/12/09 03:55:47;;;;;;;;;;;;;;;17.16;61.37;101334.50;5013475;28;1850;-37
2020/12/09 03:58:12;;;;;;;;;;;;;;;17.06;61.58;101332.47;5004086;28;1980;-36
2020/12/09 04:00:37;;;;;;;;;;;;;;;17.05;61.59;101343.25;5006172;28;1775;-36
2020/12/09 04:03:03;;;;;;;;;;;;;;;17.04;60.58;101353.09;5011594;28;1945;-36
2020/12/09 04:05:28;;;;;;;;;;;;;;;17.00;61.41;101356.97;5001062;28;1883;-37
2020/12/09 04:07:53;;;;;;;;;;;;;;;17.00;61.96;101364.13;5012263;28;1876;-36
2020/12/09 04:10:18;;;;;;;;;;;;;;;16.98;60.83;101353.53;5004750;28;1899;-37
2020/12/09 04:12:44;;;;;;;;;;;;;;;16.98;61.13;101350.88;5005696;28;1888;-37
2020/12/09 04:15:10;;;;;;;;;;;;;;;16.99;62.97;101351.72;5009144;28;1723;-37
2020/12/09 04:17:35;;;;;;;;;;;;;;;16.98;62.67;101358.88;5006343;28;1943;-37
2020/12/09 04:20:00;;;;;;;;;;;;;;;16.99;63.48;101354.38;5008418;28;1911;-37
2020/12/09 04:22:26;;;;;;;;;;;;;;;17.03;62.62;101356.75;5001051;28;1886;-37
2020/12/09 04:24:51;;;;;;;;;;;;;;;17.01;62.66;101353.34;4997577;28;1926;-37
2020/12/09 04:27:16;;;;;;;;;;;;;;;16.98;63.51;101358.03;4998006;28;1773;-36
2020/12/09 04:29:42;;;;;;;;;;;;;;;16.90;63.80;101363.91;5005797;28;1890;-37
2020/12/09 04:32:07;;;;;;;;;;;;;;;16.96;63.44;101341.25;4985008;28;11572;-37
2020/12/09 04:34:33;;;;;;;;;;;;;;;17.02;62.91;101339.00;4870607;28;11166;-37
2020/12/09 04:36:58;;;;;;;;;;;;;;;16.98;62.99;101340.19;4997150;28;1893;-37
2020/12/09 04:39:24;;;;;;;;;;;;;;;16.97;62.68;101330.47;4996829;28;1014;-37
2020/12/09 04:41:49;;;;;;;;;;;;;;;16.99;63.97;101333.00;4996594;28;1914;-37
2020/12/09 04:44:14;;;;;;;;;;;;;;;16.92;64.13;101321.91;5001312;28;1759;-37
2020/12/09 04:46:44;;;;;;;;;;;;;;;16.94;62.89;101320.00;5016473;28;865;-37
2020/12/09 04:49:13;;;;;;;;;;;;;;;16.90;63.46;101323.84;4998702;28;1790;-37
2020/12/09 04:51:59;;;;;;;;;;;;;;;16.87;63.66;101314.25;5007270;28;1807;-37
2020/12/09 04:54:38;;;;;;;;;;;;;;;16.86;64.50;101323.19;5014366;28;1791;-36
2020/12/09 04:57:13;;;;;;;;;;;;;;;16.91;63.38;101322.91;5016371;28;866;-37
2020/12/09 04:59:40;;;;;;;;;;;;;;;16.92;63.27;101329.94;5015953;28;830;-37
2020/12/09 05:02:06;;;;;;;;;;;;;;;16.82;63.50;101328.88;5009349;28;1910;-37
2020/12/09 05:04:32;;;;;;;;;;;;;;;16.74;64.73;101339.22;4996845;28;832;-37
2020/12/09 05:07:05;;;;;;;;;;;;;;;16.74;64.54;101329.38;4996335;28;920;-37
2020/12/09 05:09:33;;;;;;;;;;;;;;;16.74;64.48;101315.19;4996178;28;921;-37
2020/12/09 05:12:03;;;;;;;;;;;;;;;16.72;64.06;101319.78;5001278;28;1837;-37
2020/12/09 05:14:29;;;;;;;;;;;;;;;16.77;64.02;101328.28;4999437;28;1699;-37
2020/12/09 05:17:00;;;;;;;;;;;;;;;16.70;63.35;101312.69;5010628;28;1876;-37
2020/12/09 05:19:26;;;;;;;;;;;;;;;16.70;63.55;101323.38;5005191;28;1819;-37
2020/12/09 05:21:51;;;;;;;;;;;;;;;16.70;64.73;101343.91;5002995;28;1898;-36
2020/12/09 05:24:19;;;;;;;;;;;;;;;16.66;64.83;101345.94;5011208;28;1929;-37
2020/12/09 05:26:45;;;;;;;;;;;;;;;16.70;63.93;101347.41;4996429;28;1663;-37
2020/12/09 05:29:11;;;;;;;;;;;;;;;16.66;64.81;101359.28;5003100;28;1715;-37
2020/12/09 05:31:40;;;;;;;;;;;;;;;16.69;64.31;101382.25;5004689;28;1767;-37
2020/12/09 05:34:24;;;;;;;;;;;;;;;16.68;63.48;101386.72;5001591;28;1763;-37
2020/12/09 05:36:50;;;;;;;;;;;;;;;16.67;64.17;101376.16;5014939;28;1897;-37
2020/12/09 05:39:15;;;;;;;;;;;;;;;16.65;64.50;101362.94;5006903;28;1648;-37
2020/12/09 05:41:40;;;;;;;;;;;;;;;16.69;64.54;101358.19;4996890;28;2004;-36
2020/12/09 05:44:06;;;;;;;;;;;;;;;16.67;63.72;101349.44;5009993;28;1932;-37
2020/12/09 05:46:31;;;;;;;;;;;;;;;16.73;64.26;101358.84;4998500;28;1708;-37
2020/12/09 05:48:57;;;;;;;;;;;;;;;16.70;64.81;101350.09;5000584;28;1879;-37
2020/12/09 05:51:22;;;;;;;;;;;;;;;16.65;63.83;101336.22;5006836;28;1640;-37
2020/12/09 05:53:48;;;;;;;;;;;;;;;16.69;63.72;101331.50;5004342;28;1838;-37
2020/12/09 05:56:13;;;;;;;;;;;;;;;16.68;64.10;101325.31;5010802;28;1868;-37
2020/12/09 05:58:42;;;;;;;;;;;;;;;16.67;64.71;101307.59;4998962;28;1815;-36
2020/12/09 06:01:12;;;;;;;;;;;;;;;16.68;64.63;101309.28;5007831;28;1902;-36
2020/12/09 06:03:38;;;;;;;;;;;;;;;16.64;63.62;101313.13;5006055;28;1609;-36
2020/12/09 06:06:27;;;;;;;;;;;;;;;16.60;64.94;101333.00;5000179;28;1819;-36
2020/12/09 06:08:56;;;;;;;;;;;;;;;16.59;64.12;101333.09;5006814;28;1835;-39
2020/12/09 06:11:22;;;;;;;;;;;;;;;16.52;64.35;101329.16;5004767;28;1807;-39
2020/12/09 06:13:47;;;;;;;;;;;;;;;16.57;64.35;101354.56;5013796;28;1920;-39
2020/12/09 06:16:13;;;;;;;;;;;;;;;16.57;64.97;101365.25;4998980;28;1941;-39
2020/12/09 06:18:41;;;;;;;;;;;;;;;16.55;63.86;101353.81;4998604;28;1664;-39
2020/12/09 06:21:06;;;;;;;;;;;;;;;16.61;63.91;101347.19;5008629;28;1952;-39
2020/12/09 06:23:32;;;;;;;;;;;;;;;16.59;64.82;101352.66;4996308;28;1882;-39
2020/12/09 06:25:59;;;;;;;;;;;;;;;16.63;63.93;101354.16;5007888;28;1902;-39
2020/12/09 06:28:25;;;;;;;;;;;;;;;16.60;63.63;101338.34;4998029;28;1704;-40
2020/12/09 06:30:51;;;;;;;;;;;;;;;16.57;64.18;101337.69;5009622;28;2006;-39
2020/12/09 06:33:29;;;;;;;;;;;;;;;16.53;65.06;101366.41;4996714;28;1955;-39
2020/12/09 06:36:13;;;;;;;;;;;;;;;16.47;64.80;101358.81;5007906;28;1692;-39
2020/12/09 06:38:39;;;;;;;;;;;;;;;16.49;65.08;101379.13;4997265;28;2012;-40
2020/12/09 06:41:04;;;;;;;;;;;;;;;16.57;64.90;101365.25;5008000;28;2363;-39
2020/12/09 06:43:30;;;;;;;;;;;;;;;16.60;63.90;101364.19;5004443;28;1783;-39
2020/12/09 06:45:55;;;;;;;;;;;;;;;16.62;64.85;101368.47;5000730;28;1818;-39
2020/12/09 06:48:21;;;;;;;;;;;;;;;16.65;64.85;101370.94;5011133;28;1701;-40
2020/12/09 06:50:47;;;;;;;;;;;;;;;16.64;64.38;101355.84;5012313;28;1559;-39
2020/12/09 06:53:12;;;;;;;;;;;;;;;16.67;67.29;101384.16;5011441;28;1530;-39
2020/12/09 06:55:37;;;;;;;;;;;;;;;16.67;66.55;101371.69;5012877;28;1580;-38
2020/12/09 06:58:22;;;;;;;;;;;;;;;16.72;67.35;101382.03;5012732;28;1490;-39
2020/12/09 07:00:59;;;;;;;;;;;;;;;16.66;67.67;101372.63;5013003;28;1438;-39
2020/12/09 07:03:28;;;;;;;;;;;;;;;16.64;67.10;101355.00;5012847;28;1910;-39
2020/12/09 07:05:54;;;;;;;;;;;;;;;16.75;66.30;101362.28;5010189;28;1486;-39
2020/12/09 07:08:19;;;;;;;;;;;;;;;16.66;67.21;101355.75;5012332;28;1568;-39
2020/12/09 07:10:44;;;;;;;;;;;;;;;16.57;66.97;101348.38;5012934;28;1469;-39
2020/12/09 07:13:11;;;;;;;;;;;;;;;16.54;67.27;101360.13;5014433;28;1298;-39
2020/12/09 07:15:38;;;;;;;;;;;;;;;16.49;66.77;101341.75;5013074;28;1348;-39
2020/12/09 07:18:03;;;;;;;;;;;;;;;16.50;65.91;101326.59;5008672;28;1530;-39
2020/12/09 07:20:29;;;;;;;;;;;;;;;16.51;66.17;101330.94;5013641;28;1701;-39
2020/12/09 07:22:54;;;;;;;;;;;;;;;16.52;65.91;101321.16;5013829;28;1890;-39
2020/12/09 07:25:20;;;;;;;;;;;;;;;16.62;65.55;101332.91;4997383;28;2065;-39
2020/12/09 07:27:46;;;;;;;;;;;;;;;16.67;66.79;101328.06;5011089;28;1856;-39
2020/12/09 07:30:13;;;;;;;;;;;;;;;16.89;65.61;101327.47;5010890;28;1584;-39
2020/12/09 07:32:38;;;;;;;;;;;;;;;17.18;64.43;101316.53;4996702;28;1743;-39
2020/12/09 07:35:03;;;;;;;;;;;;;;;17.49;64.54;101305.34;4998464;28;1912;-39
2020/12/09 07:37:31;;;;;;;;;;;;;;;17.97;63.49;101298.31;5003567;28;1676;-39
2020/12/09 07:39:59;;;;;;;;;;;;;;;18.29;64.83;101302.03;5004979;28;1688;-39
2020/12/09 07:42:25;;;;;;;;;;;;;;;18.35;64.21;101289.19;5011396;28;1914;-39
2020/12/09 07:44:51;;;;;;;;;;;;;;;18.74;62.57;101292.38;5001090;28;1621;-39
2020/12/09 07:47:20;;;;;;;;;;;;;;;18.71;64.32;101292.63;5012530;28;1803;-39
2020/12/09 07:49:50;;;;;;;;;;;;;;;18.82;62.60;101308.72;5009547;28;1711;-39
2020/12/09 07:52:19;;;;;;;;;;;;;;;18.87;61.24;101314.59;5001485;28;1627;-39
2020/12/09 07:54:44;;;;;;;;;;;;;;;19.07;60.21;101316.53;5005892;28;1838;-39
2020/12/09 07:57:09;;;;;;;;;;;;;;;19.40;59.62;101311.28;4994765;28;12174;-39
2020/12/09 07:59:34;;;;;;;;;;;;;;;19.44;59.90;101318.94;4984493;28;1480;-39
2020/12/09 08:04:06;;;;;;;;;;;;;;;20.19;58.20;101292.22;5106032;27;1587;-41
2020/12/09 08:06:33;;;;;;;;;;;;;;;19.90;59.18;101287.47;5091260;28;1504;-41
2020/12/09 08:09:10;;;;;;;;;;;;;;;19.68;59.67;101272.28;5094771;28;1526;-41
2020/12/09 08:11:37;;;;;;;;;;;;;;;19.69;59.80;101282.03;5097319;28;1285;-41
2020/12/09 08:14:02;;;;;;;;;;;;;;;19.82;59.38;101288.13;5090877;28;1425;-41
2020/12/09 08:16:28;;;;;;;;;;;;;;;19.90;59.68;101302.75;5095531;28;1427;-41
2020/12/09 08:19:03;;;;;;;;;;;;;;;19.71;59.90;101306.94;5094710;28;1264;-41
2020/12/09 08:21:29;;;;;;;;;;;;;;;19.65;60.41;101310.09;5096677;28;1238;-41
2020/12/09 08:23:54;;;;;;;;;;;;;;;19.56;60.26;101302.81;5092799;28;1972;-41
2020/12/09 08:26:29;;;;;;;;;;;;;;;19.54;60.68;101313.66;5094982;28;1592;-40
2020/12/09 08:28:54;;;;;;;;;;;;;;;19.40;60.75;101301.38;5095149;28;1453;-41
2020/12/09 08:31:20;;;;;;;;;;;;;;;19.27;61.15;101325.66;5093959;28;1484;-41
2020/12/09 08:33:45;;;;;;;;;;;;;;;19.12;61.05;101312.63;5091438;28;1697;-40
2020/12/09 08:36:14;;;;;;;;;;;;;;;18.97;61.55;101312.88;5085962;28;1775;-41
2020/12/09 08:38:46;;;;;;;;;;;;;;;18.92;60.65;101298.13;5088144;28;1611;-41
2020/12/09 08:41:13;;;;;;;;;;;;;;;18.86;60.93;101286.06;5074501;28;1571;-41
2020/12/09 08:43:40;;;;;;;;;;;;;;;18.84;60.48;101288.91;5072043;28;1965;-41
2020/12/09 08:46:06;;;;;;;;;;;;;;;18.69;60.90;101284.72;5084420;28;1505;-41
2020/12/09 08:48:33;;;;;;;;;;;;;;;18.60;60.92;101307.72;5070140;28;1768;-41
2020/12/09 08:50:58;;;;;;;;;;;;;;;18.62;62.13;101300.41;5069944;28;1728;-41
2020/12/09 08:53:23;;;;;;;;;;;;;;;18.56;62.39;101300.91;5068198;28;2854;-41
2020/12/09 08:55:49;;;;;;;;;;;;;;;18.52;62.70;101274.47;5077481;28;2085;-41
2020/12/09 08:58:15;;;;;;;;;;;;;;;18.50;62.36;101290.63;5080280;28;1728;-41
2020/12/09 09:00:41;;;;;;;;;;;;;;;18.37;63.38;101281.88;5068456;28;1474;-41
2020/12/09 09:03:18;;;;;;;;;;;;;;;18.37;62.82;101284.56;5072422;28;1902;-42
2020/12/09 09:05:45;;;;;;;;;;;;;;;18.33;63.47;101277.72;5073746;28;1402;-40
2020/12/09 09:08:11;;;;;;;;;;;;;;;18.31;63.39;101269.81;5059296;28;1730;-40
2020/12/09 09:10:49;;;;;;;;;;;;;;;18.37;63.23;101247.06;5067912;28;1653;-41
2020/12/09 09:13:34;;;;;;;;;;;;;;;18.32;63.06;101265.31;5071856;28;1764;-41
2020/12/09 09:16:07;;;;;;;;;;;;;;;18.34;63.59;101263.34;5057025;28;1644;-43
2020/12/09 09:18:52;;;;;;;;;;;;;;;18.29;63.68;101267.25;5060465;28;1706;-43
2020/12/09 09:21:18;;;;;;;;;;;;;;;18.39;63.41;101274.56;5053011;28;1109;-43
2020/12/09 09:23:43;;;;;;;;;;;;;;;18.53;62.91;101269.00;5054191;28;1914;-43
2020/12/09 09:26:09;;;;;;;;;;;;;;;18.57;63.17;101251.69;5059608;28;1770;-43
2020/12/09 09:28:34;;;;;;;;;;;;;;;18.68;62.99;101251.72;5057334;28;1890;-43
2020/12/09 09:31:02;;;;;;;;;;;;;;;18.67;63.00;101250.00;5055884;28;1700;-43
2020/12/09 09:33:27;;;;;;;;;;;;;;;18.53;63.81;101266.31;5060547;28;1694;-42
2020/12/09 09:35:52;;;;;;;;;;;;;;;18.56;63.76;101252.69;5058330;28;1392;-43
2020/12/09 09:38:18;;;;;;;;;;;;;;;18.62;62.55;101267.41;5055445;28;1751;-40
2020/12/09 09:40:43;;;;;;;;;;;;;;;18.64;62.55;101260.97;5060916;28;1469;-40
2020/12/09 09:43:14;;;;;;;;;;;;;;;18.69;61.47;101253.41;5057934;28;1985;-40
2020/12/09 09:45:40;;;;;;;;;;;;;;;18.54;61.18;101259.97;5053408;28;1560;-40
2020/12/09 09:48:05;;;;;;;;;;;;;;;18.49;61.89;101259.50;5057095;28;1633;-40
2020/12/09 09:50:45;;;;;;;;;;;;;;;18.43;62.14;101249.25;5056813;28;1289;-40
2020/12/09 09:53:11;;;;;;;;;;;;;;;18.39;62.08;101258.50;5058181;28;1880;-40
2020/12/09 09:55:36;;;;;;;;;;;;;;;18.38;63.22;101251.44;5058096;28;1757;-40
2020/12/09 09:58:10;;;;;;;;;;;;;;;18.28;63.63;101252.16;5063206;28;1877;-40
2020/12/09 10:00:36;;;;;;;;;;;;;;;18.37;64.04;101247.91;5061111;28;1709;-40
2020/12/09 10:03:02;;;;;;;;;;;;;;;18.28;62.76;101252.16;5057481;28;1977;-40
2020/12/09 10:05:28;;;;;;;;;;;;;;;18.33;60.99;101254.47;5056846;28;1909;-40
2020/12/09 10:07:53;;;;;;;;;;;;;;;18.17;62.87;101236.06;5063330;28;1464;-40
2020/12/09 10:10:20;;;;;;;;;;;;;;;18.22;63.58;101241.94;5066269;28;1801;-40
2020/12/09 10:12:46;;;;;;;;;;;;;;;18.31;63.77;101234.16;5058675;28;1549;-40
2020/12/09 10:15:11;;;;;;;;;;;;;;;18.46;63.18;101224.91;5058658;28;1691;-40
2020/12/09 10:17:36;;;;;;;;;;;;;;;18.59;63.38;101227.47;5060361;28;1356;-40
2020/12/09 10:20:02;;;;;;;;;;;;;;;18.74;62.75;101206.63;5058811;28;1686;-40
2020/12/09 10:22:27;;;;;;;;;;;;;;;18.83;62.48;101205.94;5059137;28;1897;-40
2020/12/09 10:24:53;;;;;;;;;;;;;;;18.89;61.94;101200.09;5058863;28;1649;-41
2020/12/09 10:27:20;;;;;;;;;;;;;;;19.01;62.64;101207.13;5062874;28;1342;-40
2020/12/09 10:29:45;;;;;;;;;;;;;;;19.04;62.62;101200.69;5057563;28;1738;-40
2020/12/09 10:32:31;;;;;;;;;;;;;;;19.03;62.90;101198.97;5063797;28;1729;-41
2020/12/09 10:34:57;;;;;;;;;;;;;;;19.08;63.08;101194.94;5064222;28;1690;-40
2020/12/09 10:37:22;;;;;;;;;;;;;;;19.14;63.71;101192.72;5059145;28;1599;-40
2020/12/09 10:39:52;;;;;;;;;;;;;;;19.15;63.58;101197.97;5061221;28;1748;-41
2020/12/09 10:42:20;;;;;;;;;;;;;;;19.15;63.55;101191.75;4358269;28;10000702;-40
2020/12/09 10:44:45;;;;;;;;;;;;;;;19.10;62.88;101191.25;5054313;28;1576;-41
2020/12/09 10:47:11;;;;;;;;;;;;;;;19.00;63.49;101186.69;5060813;28;1573;-41
2020/12/09 10:49:36;;;;;;;;;;;;;;;18.92;62.94;101181.09;5070144;28;1138;-40
2020/12/09 10:52:01;;;;;;;;;;;;;;;18.86;63.50;101182.44;5062132;28;1590;-41
2020/12/09 10:54:27;;;;;;;;;;;;;;;18.86;63.21;101173.53;5063914;28;1695;-40
2020/12/09 10:56:52;;;;;;;;;;;;;;;18.86;63.07;101178.88;5061883;28;1505;-40
2020/12/09 10:59:17;;;;;;;;;;;;;;;18.77;63.48;101179.63;5065151;28;1433;-41
2020/12/09 11:01:43;;;;;;;;;;;;;;;18.68;63.70;101166.00;5057690;28;1929;-40
2020/12/09 11:04:09;;;;;;;;;;;;;;;18.59;63.76;101147.13;5070164;28;1575;-40
2020/12/09 11:06:34;;;;;;;;;;;;;;;18.57;64.12;101149.06;5070060;28;1487;-40
2020/12/09 11:09:00;;;;;;;;;;;;;;;18.52;64.34;101154.78;5063831;28;1389;-40
2020/12/09 11:11:27;;;;;;;;;;;;;;;18.44;64.23;101146.50;5067631;28;1352;-40
2020/12/09 11:13:52;;;;;;;;;;;;;;;18.41;64.51;101155.66;5061672;28;1538;-40
2020/12/09 11:16:18;;;;;;;;;;;;;;;18.36;64.55;101143.59;5056499;28;1333;-40
2020/12/09 11:18:43;;;;;;;;;;;;;;;18.37;64.03;101150.69;5055625;28;1443;-40
2020/12/09 11:21:09;;;;;;;;;;;;;;;18.29;64.61;101144.09;5059785;28;1355;-40
2020/12/09 11:23:35;;;;;;;;;;;;;;;18.29;63.70;101137.88;5066879;28;1897;-40
2020/12/09 11:26:00;;;;;;;;;;;;;;;18.25;63.82;101147.13;5065030;28;1582;-40
2020/12/09 11:28:25;;;;;;;;;;;;;;;18.22;64.60;101110.78;5066480;28;1345;-40
2020/12/09 11:30:51;;;;;;;;;;;;;;;18.23;63.60;101122.31;5058853;28;2110;-40
2020/12/09 11:33:16;;;;;;;;;;;;;;;18.21;64.53;101119.75;5062288;28;1431;-40
2020/12/09 11:35:42;;;;;;;;;;;;;;;18.15;63.68;101120.25;5067889;28;1570;-40
2020/12/09 11:38:07;;;;;;;;;;;;;;;18.13;63.80;101111.47;5067519;28;1607;-40
2020/12/09 11:40:32;;;;;;;;;;;;;;;18.11;64.40;101112.59;5064092;28;1576;-40
2020/12/09 11:42:57;;;;;;;;;;;;;;;18.09;63.97;101113.53;5055363;28;2255;-40
2020/12/09 11:45:23;;;;;;;;;;;;;;;18.14;64.22;101115.00;5064227;28;1405;-40
2020/12/09 11:47:48;;;;;;;;;;;;;;;18.13;64.10;101111.47;5067597;28;1614;-41
2020/12/09 11:50:13;;;;;;;;;;;;;;;18.15;64.07;101120.25;5065577;28;1297;-40
2020/12/09 11:52:38;;;;;;;;;;;;;;;18.14;64.01;101112.34;5054381;28;1870;-40
2020/12/09 11:55:04;;;;;;;;;;;;;;;18.09;63.61;101097.50;5056158;28;1408;-40
2020/12/09 11:57:29;;;;;;;;;;;;;;;18.13;64.55;101082.03;5064157;28;1425;-40
2020/12/09 11:59:55;;;;;;;;;;;;;;;18.17;63.51;101090.69;5059287;28;1756;-40
2020/12/09 12:02:20;;;;;;;;;;;;;;;18.16;63.68;101097.00;5052604;28;1914;-41
2020/12/09 12:04:48;;;;;;;;;;;;;;;18.14;63.71;101094.44;5054918;28;1912;-40
2020/12/09 12:07:13;;;;;;;;;;;;;;;18.13;63.48;101081.19;5058941;28;1380;-41
2020/12/09 12:09:38;;;;;;;;;;;;;;;18.13;63.88;101103.47;5066006;28;1605;-40
2020/12/09 12:12:04;;;;;;;;;;;;;;;18.13;63.70;101079.38;5067124;28;1829;-41
2020/12/09 12:14:29;;;;;;;;;;;;;;;18.14;63.79;101081.06;5063068;28;1333;-41
2020/12/09 12:16:54;;;;;;;;;;;;;;;18.13;62.96;101068.66;5056283;28;1589;-40
2020/12/09 12:19:19;;;;;;;;;;;;;;;18.20;63.00;101080.56;5060860;28;1387;-40
2020/12/09 12:21:48;;;;;;;;;;;;;;;18.28;62.99;101074.59;5066712;28;1416;-40
2020/12/09 12:24:13;;;;;;;;;;;;;;;18.41;61.85;101066.44;5054880;28;1605;-40
2020/12/09 12:26:38;;;;;;;;;;;;;;;18.59;61.81;101064.09;5064008;28;1579;-41
2020/12/09 12:29:04;;;;;;;;;;;;;;;18.77;61.04;101056.38;5065262;28;1717;-41
2020/12/09 12:31:29;;;;;;;;;;;;;;;18.89;60.40;101063.41;5059677;28;2094;-41
2020/12/09 12:33:54;;;;;;;;;;;;;;;18.93;60.92;101056.81;5052794;28;1741;-40
2020/12/09 12:36:22;;;;;;;;;;;;;;;18.85;60.50;101038.69;5067310;28;1332;-40
2020/12/09 12:38:48;;;;;;;;;;;;;;;18.85;60.71;101049.41;5066997;28;1571;-40
2020/12/09 12:41:13;;;;;;;;;;;;;;;18.86;60.85;101044.91;5068886;28;1642;-40
2020/12/09 12:43:39;;;;;;;;;;;;;;;18.87;61.09;101042.09;5063139;28;2340;-40
2020/12/09 12:46:05;;;;;;;;;;;;;;;18.92;60.52;101035.50;5065749;28;1661;-40